Time;durP1;ratioP1;P1;durP2;ratioP2;P2;SDS_P1;SDS_P2;PMS_P1;PMS_P2;Temp;Humidity;BMP_temperature;BMP_pressure;BME280_temperature;BME280_humidity;BME280_pressure;Samples;Min_cycle;Max_cycle;Signal;HPM_P1;HPM_P2
2022/10/18 00:01:38;;;;;;;9.00;3.80;;;15.90;99.90;;;;;;5075653;28;20389;-72
2022/10/18 00:04:04;;;;;;;7.47;4.15;;;15.90;99.90;;;;;;5057882;28;20057;-71
2022/10/18 00:06:30;;;;;;;6.75;3.83;;;15.90;99.90;;;;;;5056951;28;20147;-71
2022/10/18 00:08:56;;;;;;;8.60;3.95;;;15.90;99.90;;;;;;5073487;28;20468;-71
2022/10/18 00:11:22;;;;;;;6.68;3.60;;;15.90;99.90;;;;;;5073490;28;20393;-70
2022/10/18 00:13:48;;;;;;;6.75;3.88;;;15.90;99.90;;;;;;5073774;28;20037;-71
2022/10/18 00:16:16;;;;;;;6.70;3.38;;;15.90;99.90;;;;;;5087808;22;20044;-72
2022/10/18 00:18:43;;;;;;;6.40;3.55;;;15.90;99.90;;;;;;5055334;28;20029;-72
2022/10/18 00:21:14;;;;;;;9.15;3.60;;;15.90;99.90;;;;;;5073302;28;20031;-71
2022/10/18 00:23:41;;;;;;;6.93;3.67;;;15.90;99.90;;;;;;5073286;28;20107;-71
2022/10/18 00:26:12;;;;;;;7.80;3.55;;;15.90;99.90;;;;;;5073148;28;20087;-72
2022/10/18 00:28:39;;;;;;;8.02;3.40;;;16.00;99.90;;;;;;5073190;28;20107;-72
2022/10/18 00:31:20;;;;;;;10.15;3.45;;;15.90;99.90;;;;;;5073032;28;20090;-72
2022/10/18 00:33:50;;;;;;;8.63;3.60;;;15.90;99.90;;;;;;5073375;28;20111;-71
2022/10/18 00:36:17;;;;;;;7.47;3.47;;;15.90;99.90;;;;;;5072858;28;20028;-72
2022/10/18 00:38:43;;;;;;;8.23;3.53;;;15.90;99.90;;;;;;5072789;28;20449;-72
2022/10/18 00:41:12;;;;;;;7.93;3.63;;;15.90;99.90;;;;;;5073046;28;20028;-72
2022/10/18 00:44:01;;;;;;;5.68;3.63;;;15.90;99.90;;;;;;5073011;28;20119;-72
2022/10/18 00:46:28;;;;;;;;;;;15.90;99.90;;;;;;5073147;28;20059;-72
2022/10/18 00:48:56;;;;;;;9.35;3.75;;;15.90;99.90;;;;;;5072661;28;19959;-72
2022/10/18 00:51:25;;;;;;;5.93;3.58;;;15.90;99.90;;;;;;5072551;28;20048;-71
2022/10/18 00:53:51;;;;;;;;;;;15.90;99.90;;;;;;5073318;28;20032;-72
2022/10/18 00:56:17;;;;;;;9.88;3.78;;;15.90;99.90;;;;;;5054610;28;20391;-72
2022/10/18 00:58:45;;;;;;;7.13;3.67;;;15.90;99.90;;;;;;5054592;28;20032;-72
2022/10/18 01:01:11;;;;;;;5.65;3.33;;;15.80;99.90;;;;;;5072541;28;20028;-72
2022/10/18 01:03:37;;;;;;;8.23;3.53;;;15.80;99.90;;;;;;5072543;28;20227;-71
2022/10/18 01:06:03;;;;;;;7.65;3.90;;;15.80;99.90;;;;;;5072450;28;20037;-72
2022/10/18 01:08:58;;;;;;;6.32;3.50;;;15.80;99.90;;;;;;5072660;28;20036;-72
2022/10/18 01:11:51;;;;;;;7.63;3.67;;;15.90;99.90;;;;;;5065701;28;20520;-72
2022/10/18 01:14:35;;;;;;;6.80;3.60;;;15.80;99.90;;;;;;5073012;28;20038;-71
2022/10/18 01:17:10;;;;;;;9.40;3.53;;;15.80;99.90;;;;;;5072935;28;20092;-72
2022/10/18 01:20:01;;;;;;;11.38;3.65;;;15.80;99.90;;;;;;5073709;28;20442;-71
2022/10/18 01:22:53;;;;;;;6.25;3.30;;;15.80;99.90;;;;;;5074936;28;20506;-72
2022/10/18 01:25:57;;;;;;;8.27;3.40;;;15.80;99.90;;;;;;5073803;28;20028;-72
2022/10/18 01:28:53;;;;;;;8.45;3.80;;;15.80;99.90;;;;;;5017113;28;20510;-72
2022/10/18 01:31:21;;;;;;;8.77;4.13;;;15.80;99.90;;;;;;5071762;28;20089;-72
2022/10/18 01:33:51;;;;;;;7.47;3.78;;;15.70;99.90;;;;;;5071946;28;20035;-72
2022/10/18 01:36:22;;;;;;;6.68;3.30;;;15.70;99.90;;;;;;5071747;28;20145;-72
2022/10/18 01:38:52;;;;;;;7.60;3.65;;;15.80;99.90;;;;;;5071652;28;20028;-72
2022/10/18 01:41:21;;;;;;;7.30;3.50;;;15.80;99.90;;;;;;5053768;28;20492;-72
2022/10/18 01:43:50;;;;;;;9.00;3.80;;;15.80;99.90;;;;;;5071719;28;20024;-72
2022/10/18 01:46:20;;;;;;;9.85;3.92;;;15.80;99.90;;;;;;5071652;28;20028;-72
2022/10/18 01:48:47;;;;;;;7.60;4.00;;;15.80;99.90;;;;;;5071533;28;20028;-72
2022/10/18 01:51:13;;;;;;;4.72;2.85;;;15.80;99.90;;;;;;5071514;28;20116;-72
2022/10/18 01:53:39;;;;;;;8.95;4.03;;;15.80;99.90;;;;;;5071376;28;20480;-72
2022/10/18 01:56:20;;;;;;;6.63;3.90;;;15.80;99.90;;;;;;5071479;28;20110;-72
2022/10/18 01:59:21;;;;;;;8.05;4.00;;;15.80;99.90;;;;;;5071407;28;20406;-72
2022/10/18 02:01:49;;;;;;;7.03;4.07;;;15.80;99.90;;;;;;5071308;28;20024;-72
2022/10/18 02:04:33;;;;;;;6.82;4.15;;;15.80;99.90;;;;;;5071291;28;20029;-72
2022/10/18 02:07:15;;;;;;;6.28;3.70;;;15.80;99.90;;;;;;5071185;28;20059;-72
2022/10/18 02:09:53;;;;;;;8.27;4.25;;;15.80;99.90;;;;;;5071050;28;20385;-72
2022/10/18 02:12:21;;;;;;;8.15;4.20;;;15.80;99.90;;;;;;5053225;28;20067;-72
2022/10/18 02:14:48;;;;;;;6.03;3.95;;;15.80;99.90;;;;;;5053349;28;20055;-72
2022/10/18 02:17:15;;;;;;;8.05;3.92;;;15.80;99.90;;;;;;5070989;28;20028;-72
2022/10/18 02:19:46;;;;;;;8.80;4.00;;;15.80;99.90;;;;;;5052979;28;20032;-72
2022/10/18 02:22:13;;;;;;;7.13;3.60;;;15.80;99.90;;;;;;5070681;28;20036;-72
2022/10/18 02:24:48;;;;;;;10.48;4.10;;;15.80;99.90;;;;;;5053292;28;20573;-72
2022/10/18 02:27:14;;;;;;;6.65;3.85;;;15.80;99.90;;;;;;5070845;28;20161;-72
2022/10/18 02:29:41;;;;;;;8.68;4.40;;;15.80;99.90;;;;;;5070799;28;20025;-72
2022/10/18 02:32:19;;;;;;;7.03;3.67;;;15.80;99.90;;;;;;5070887;28;20032;-72
2022/10/18 02:35:00;;;;;;;8.55;3.50;;;15.80;99.90;;;;;;5071017;28;20028;-72
2022/10/18 02:37:32;;;;;;;7.82;3.90;;;15.80;99.90;;;;;;5070682;28;20036;-72
2022/10/18 02:39:58;;;;;;;9.18;4.10;;;15.80;99.90;;;;;;5070650;28;20025;-71
2022/10/18 02:42:24;;;;;;;7.53;4.20;;;15.80;99.90;;;;;;5070615;28;20036;-72
2022/10/18 02:44:50;;;;;;;7.85;4.20;;;15.80;99.90;;;;;;5070753;28;20048;-72
2022/10/18 02:47:15;;;;;;;8.93;4.93;;;15.80;99.90;;;;;;5070779;28;20484;-72
2022/10/18 02:49:41;;;;;;;11.38;4.70;;;15.80;99.90;;;;;;5070611;28;20111;-72
2022/10/18 02:52:07;;;;;;;9.07;4.57;;;15.80;99.90;;;;;;5070733;28;20456;-72
2022/10/18 02:54:33;;;;;;;7.05;4.00;;;15.80;99.90;;;;;;5070952;28;20024;-72
2022/10/18 02:56:59;;;;;;;6.70;4.18;;;15.80;99.90;;;;;;5070593;28;20064;-71
2022/10/18 02:59:25;;;;;;;7.85;4.40;;;15.80;99.90;;;;;;5070517;28;20059;-72
2022/10/18 03:01:51;;;;;;;7.70;4.35;;;15.80;99.90;;;;;;5070614;28;20082;-72
2022/10/18 03:04:17;;;;;;;6.00;4.03;;;15.80;99.90;;;;;;5070594;28;20036;-72
2022/10/18 03:06:43;;;;;;;8.50;4.50;;;15.70;99.90;;;;;;5070498;28;20436;-71
2022/10/18 03:09:09;;;;;;;7.90;4.35;;;15.70;99.90;;;;;;5052485;28;20098;-72
2022/10/18 03:11:35;;;;;;;7.03;4.10;;;15.70;99.90;;;;;;5070566;28;20147;-72
2022/10/18 03:14:01;;;;;;;9.18;5.00;;;15.70;99.90;;;;;;5071023;28;20388;-72
2022/10/18 03:16:26;;;;;;;10.52;4.90;;;15.70;99.90;;;;;;5070331;28;20039;-72
2022/10/18 03:18:52;;;;;;;8.77;4.95;;;15.70;99.90;;;;;;5070447;28;20059;-72
2022/10/18 03:21:18;;;;;;;7.90;4.75;;;15.70;99.90;;;;;;5070617;28;20452;-72
2022/10/18 03:23:44;;;;;;;7.68;4.70;;;15.70;99.90;;;;;;5070469;28;20032;-72
2022/10/18 03:26:10;;;;;;;10.63;5.28;;;15.70;99.90;;;;;;5070392;28;20033;-72
2022/10/18 03:28:36;;;;;;;7.43;4.95;;;15.70;99.90;;;;;;5070238;28;20032;-73
2022/10/18 03:31:03;;;;;;;7.45;5.15;;;15.70;99.90;;;;;;5070378;28;20029;-72
2022/10/18 03:33:30;;;;;;;9.82;4.78;;;15.70;99.90;;;;;;5071121;28;20025;-72
2022/10/18 03:35:56;;;;;;;9.30;5.03;;;15.70;99.90;;;;;;5073989;28;20031;-72
2022/10/18 03:38:22;;;;;;;9.40;5.57;;;15.70;99.90;;;;;;5074121;28;20032;-72
2022/10/18 03:40:48;;;;;;;7.03;4.93;;;15.70;99.90;;;;;;5073941;28;20381;-71
2022/10/18 03:43:14;;;;;;;9.23;4.85;;;15.70;99.90;;;;;;5056034;28;20025;-72
2022/10/18 03:45:40;;;;;;;9.43;5.70;;;15.70;99.90;;;;;;5074048;28;20028;-72
2022/10/18 03:48:06;;;;;;;8.18;5.10;;;15.70;99.90;;;;;;5073903;28;20504;-72
2022/10/18 03:50:32;;;;;;;8.38;5.35;;;15.70;99.90;;;;;;5073841;28;20025;-72
2022/10/18 03:52:58;;;;;;;10.77;5.88;;;15.70;99.90;;;;;;5074194;28;20027;-72
2022/10/18 03:55:24;;;;;;;10.10;5.88;;;15.70;99.90;;;;;;5073736;28;20028;-72
2022/10/18 03:57:50;;;;;;;9.52;5.78;;;15.70;99.90;;;;;;5073636;28;20033;-72
2022/10/18 04:00:16;;;;;;;8.93;5.95;;;15.70;99.90;;;;;;5073649;28;20027;-71
2022/10/18 04:02:41;;;;;;;10.93;5.82;;;15.70;99.90;;;;;;5073544;28;20428;-72
2022/10/18 04:05:08;;;;;;;9.88;5.63;;;15.70;99.90;;;;;;5073613;28;20526;-71
2022/10/18 04:07:34;;;;;;;11.02;5.45;;;15.70;99.90;;;;;;5073516;28;20027;-71
2022/10/18 04:10:00;;;;;;;10.88;5.72;;;15.70;99.90;;;;;;5055526;28;20028;-71
2022/10/18 04:12:27;;;;;;;12.32;6.40;;;15.70;99.90;;;;;;5073535;28;20055;-71
2022/10/18 04:14:52;;;;;;;10.65;6.22;;;15.70;99.90;;;;;;5073466;28;20489;-71
2022/10/18 04:17:18;;;;;;;10.18;6.18;;;15.70;99.90;;;;;;5055221;28;20033;-71
2022/10/18 04:19:44;;;;;;;12.65;6.18;;;15.70;99.90;;;;;;5073466;28;20154;-71
2022/10/18 04:22:11;;;;;;;14.23;5.72;;;15.70;99.90;;;;;;5073435;28;20524;-71
2022/10/18 04:24:37;;;;;;;10.57;5.40;;;15.70;99.90;;;;;;5073299;28;20813;-71
2022/10/18 04:27:05;;;;;;;10.73;5.80;;;15.80;99.90;;;;;;5073099;28;20027;-71
2022/10/18 04:29:31;;;;;;;17.45;8.13;;;15.70;99.90;;;;;;5073021;28;20033;-71
2022/10/18 04:31:57;;;;;;;15.98;6.95;;;15.70;99.90;;;;;;5073003;28;20150;-71
2022/10/18 04:34:22;;;;;;;11.45;6.80;;;15.70;99.90;;;;;;5055189;28;20492;-72
2022/10/18 04:36:48;;;;;;;10.82;6.38;;;15.70;99.90;;;;;;5055071;28;20027;-72
2022/10/18 04:39:14;;;;;;;10.18;6.05;;;15.70;99.90;;;;;;5072933;28;20124;-72
2022/10/18 04:41:40;;;;;;;11.23;6.22;;;15.80;99.90;;;;;;5072900;28;20119;-71
2022/10/18 04:44:08;;;;;;;11.25;6.45;;;15.80;99.90;;;;;;5072631;28;20028;-71
2022/10/18 04:46:34;;;;;;;13.53;6.57;;;15.80;99.90;;;;;;5054680;28;20112;-72
2022/10/18 04:49:01;;;;;;;10.32;6.10;;;15.80;99.90;;;;;;5072815;28;20357;-72
2022/10/18 04:51:28;;;;;;;14.52;6.93;;;15.80;99.90;;;;;;5072663;28;20036;-72
2022/10/18 04:53:54;;;;;;;12.88;6.47;;;15.80;99.90;;;;;;5054981;28;20366;-71
2022/10/18 04:56:20;;;;;;;12.02;6.78;;;15.80;99.90;;;;;;5072380;28;20036;-72
2022/10/18 04:58:46;;;;;;;10.95;6.63;;;15.80;99.90;;;;;;5054746;28;20029;-71
2022/10/18 05:01:12;;;;;;;11.45;6.68;;;15.80;99.90;;;;;;5072598;28;20423;-71
2022/10/18 05:03:38;;;;;;;12.35;6.53;;;15.80;99.90;;;;;;5072441;28;20024;-72
2022/10/18 05:06:05;;;;;;;15.80;7.13;;;15.80;99.90;;;;;;5072601;28;20442;-72
2022/10/18 05:08:32;;;;;;;11.35;6.10;;;15.80;99.90;;;;;;5054296;28;20068;-72
2022/10/18 05:10:59;;;;;;;12.93;7.70;;;15.80;99.90;;;;;;5072317;28;20480;-72
2022/10/18 05:13:26;;;;;;;15.70;9.40;;;15.80;99.90;;;;;;5072435;28;20032;-72
2022/10/18 05:15:51;;;;;;;15.50;9.23;;;15.80;99.90;;;;;;5072081;28;20032;-72
2022/10/18 05:18:17;;;;;;;17.17;10.07;;;15.80;99.90;;;;;;5054602;28;20082;-71
2022/10/18 05:20:43;;;;;;;18.65;10.60;;;15.80;99.90;;;;;;5072079;28;20493;-72
2022/10/18 05:23:09;;;;;;;21.08;11.70;;;15.80;99.90;;;;;;5054309;28;20047;-73
2022/10/18 05:25:40;;;;;;;16.90;10.30;;;15.80;99.90;;;;;;5072018;28;20118;-71
2022/10/18 05:28:06;;;;;;;21.73;12.13;;;15.80;99.90;;;;;;5072182;28;20077;-72
2022/10/18 05:30:32;;;;;;;18.55;12.30;;;15.80;99.90;;;;;;5071662;28;20024;-72
2022/10/18 05:32:58;;;;;;;20.20;12.90;;;15.80;99.90;;;;;;5072316;28;20442;-72
2022/10/18 05:35:24;;;;;;;18.75;12.40;;;15.80;99.90;;;;;;5072577;28;20116;-72
2022/10/18 05:37:50;;;;;;;18.45;12.30;;;15.80;99.90;;;;;;5071901;28;20033;-73
2022/10/18 05:40:16;;;;;;;17.25;11.05;;;15.80;99.90;;;;;;5072417;28;20077;-72
2022/10/18 05:42:42;;;;;;;21.15;13.27;;;15.80;99.90;;;;;;5073362;28;20079;-72
2022/10/18 05:45:08;;;;;;;22.67;13.85;;;15.80;99.90;;;;;;5073739;28;20032;-71
2022/10/18 05:47:34;;;;;;;24.02;14.00;;;15.80;99.90;;;;;;5073085;28;20500;-71
2022/10/18 05:50:00;;;;;;;21.33;13.40;;;15.80;99.90;;;;;;5072017;28;20032;-72
2022/10/18 05:52:26;;;;;;;21.20;13.13;;;15.80;99.90;;;;;;5071745;28;20033;-72
2022/10/18 05:54:52;;;;;;;16.90;10.80;;;15.80;99.90;;;;;;5071729;28;20035;-72
2022/10/18 05:57:18;;;;;;;18.55;11.13;;;15.80;99.90;;;;;;5070562;28;20120;-72
2022/10/18 05:59:44;;;;;;;20.40;11.55;;;15.80;99.90;;;;;;5071296;28;20024;-72
2022/10/18 06:02:11;;;;;;;15.70;10.30;;;15.80;99.90;;;;;;5071422;28;20029;-72
2022/10/18 06:04:37;;;;;;;21.80;11.88;;;15.80;99.90;;;;;;5071350;28;20048;-72
2022/10/18 06:07:08;;;;;;;20.10;12.13;;;15.80;99.90;;;;;;5071242;28;20079;-72
2022/10/18 06:09:34;;;;;;;23.30;12.93;;;15.80;99.90;;;;;;5071227;28;20115;-73
2022/10/18 06:11:59;;;;;;;20.80;13.55;;;15.80;99.90;;;;;;5071055;28;20115;-72
2022/10/18 06:14:25;;;;;;;19.25;12.52;;;15.80;99.90;;;;;;5071342;28;20476;-72
2022/10/18 06:16:51;;;;;;;18.90;12.02;;;15.80;99.90;;;;;;5085770;22;20136;-69
2022/10/18 06:19:17;;;;;;;20.92;12.95;;;15.80;99.90;;;;;;5071143;28;20016;-70
2022/10/18 06:21:43;;;;;;;18.80;12.07;;;15.80;99.90;;;;;;5071103;28;20040;-69
2022/10/18 06:24:09;;;;;;;21.13;13.85;;;15.80;99.90;;;;;;5071214;28;20024;-69
2022/10/18 06:26:35;;;;;;;22.60;14.02;;;15.80;99.90;;;;;;5071077;28;20526;-70
2022/10/18 06:29:01;;;;;;;21.30;14.20;;;15.80;99.90;;;;;;5070949;28;20107;-69
2022/10/18 06:31:27;;;;;;;21.60;13.85;;;15.80;99.90;;;;;;5071064;28;20025;-69
2022/10/18 06:33:55;;;;;;;22.50;14.52;;;15.80;99.90;;;;;;5071080;28;20040;-69
2022/10/18 06:36:21;;;;;;;23.00;13.93;;;15.90;99.90;;;;;;5070895;28;20078;-70
2022/10/18 06:38:47;;;;;;;25.60;15.27;;;15.90;99.90;;;;;;5070867;28;20051;-69
2022/10/18 06:41:13;;;;;;;24.50;13.45;;;15.90;99.90;;;;;;5070958;28;20031;-69
2022/10/18 06:43:40;;;;;;;25.52;15.25;;;15.90;99.90;;;;;;5070968;28;20481;-69
2022/10/18 06:46:07;;;;;;;24.80;14.40;;;15.90;99.90;;;;;;5070954;28;20120;-69
2022/10/18 06:48:34;;;;;;;26.10;15.45;;;15.90;99.90;;;;;;5070878;28;20485;-69
2022/10/18 06:51:03;;;;;;;24.67;15.18;;;15.90;99.90;;;;;;5053310;28;20508;-70
2022/10/18 06:53:32;;;;;;;24.02;15.82;;;15.90;99.90;;;;;;5070925;28;20028;-70
2022/10/18 06:55:59;;;;;;;24.17;15.20;;;15.90;99.90;;;;;;5070666;28;20108;-70
2022/10/18 06:58:25;;;;;;;24.88;15.80;;;15.90;99.90;;;;;;5071112;28;20321;-70
2022/10/18 07:00:51;;;;;;;20.02;13.55;;;15.90;99.90;;;;;;5070830;28;20056;-70
2022/10/18 07:03:17;;;;;;;28.70;16.77;;;15.90;99.90;;;;;;5070803;28;20032;-70
2022/10/18 07:05:43;;;;;;;28.05;17.17;;;15.90;99.90;;;;;;5070722;28;20025;-70
2022/10/18 07:08:09;;;;;;;27.80;17.58;;;15.90;99.90;;;;;;5072877;28;20103;-70
2022/10/18 07:10:35;;;;;;;30.27;18.20;;;15.90;99.90;;;;;;5056724;28;20024;-70
2022/10/18 07:13:01;;;;;;;26.55;17.92;;;15.90;99.90;;;;;;5074821;28;20504;-70
2022/10/18 07:15:27;;;;;;;30.02;18.42;;;15.90;99.90;;;;;;5074788;28;20029;-70
2022/10/18 07:17:52;;;;;;;24.98;16.15;;;16.00;99.90;;;;;;5056407;28;20028;-70
2022/10/18 07:20:18;;;;;;;30.13;19.92;;;16.00;99.90;;;;;;5074427;28;20487;-70
2022/10/18 07:22:44;;;;;;;28.50;18.02;;;16.00;99.90;;;;;;5074479;28;20481;-70
2022/10/18 07:25:10;;;;;;;28.42;18.70;;;16.00;99.90;;;;;;5074653;28;20102;-70
2022/10/18 07:27:38;;;;;;;27.27;17.77;;;16.00;99.90;;;;;;5056518;28;20504;-70
2022/10/18 07:30:06;;;;;;;28.20;18.30;;;16.10;99.90;;;;;;5074387;28;20028;-70
2022/10/18 07:32:32;;;;;;;33.83;18.77;;;16.10;99.90;;;;;;5074397;28;20036;-70
2022/10/18 07:34:58;;;;;;;29.20;18.58;;;16.10;99.90;;;;;;5074326;28;20050;-70
2022/10/18 07:37:24;;;;;;;27.33;18.27;;;16.10;99.90;;;;;;5074258;28;20028;-70
2022/10/18 07:39:50;;;;;;;29.10;17.08;;;16.10;99.90;;;;;;5074193;28;20017;-70
2022/10/18 07:42:16;;;;;;;31.92;19.15;;;16.10;99.90;;;;;;5074341;28;20033;-69
2022/10/18 07:44:41;;;;;;;30.00;17.90;;;16.10;99.90;;;;;;5074388;28;20024;-70
2022/10/18 07:47:07;;;;;;;36.75;21.70;;;16.10;99.90;;;;;;5074260;28;20029;-70
2022/10/18 07:49:33;;;;;;;31.98;20.10;;;16.10;99.90;;;;;;5074132;28;20035;-70
2022/10/18 07:51:59;;;;;;;37.72;22.25;;;16.20;99.90;;;;;;5074125;28;20477;-70
2022/10/18 07:54:25;;;;;;;39.15;23.23;;;16.10;99.90;;;;;;5074337;28;20039;-70
2022/10/18 07:56:51;;;;;;;40.78;23.10;;;16.20;99.90;;;;;;5056417;28;20032;-70
2022/10/18 07:59:17;;;;;;;33.13;20.95;;;16.10;99.90;;;;;;5074392;28;20024;-70
2022/10/18 08:01:43;;;;;;;36.95;22.70;;;16.20;99.90;;;;;;5074204;28;20036;-70
2022/10/18 08:04:09;;;;;;;36.15;22.80;;;16.20;99.90;;;;;;5074588;28;20020;-70
2022/10/18 08:06:35;;;;;;;44.95;24.95;;;16.20;99.90;;;;;;5055790;28;20033;-70
2022/10/18 08:09:01;;;;;;;39.50;23.35;;;16.20;99.90;;;;;;5073560;28;20488;-69
2022/10/18 08:11:27;;;;;;;45.58;26.90;;;16.20;99.90;;;;;;5073721;28;20043;-70
2022/10/18 08:13:53;;;;;;;43.47;24.80;;;16.20;99.90;;;;;;5056023;28;20028;-70
2022/10/18 08:16:25;;;;;;;39.22;22.33;;;16.20;99.90;;;;;;5073462;28;20033;-70
2022/10/18 08:18:51;;;;;;;47.47;26.33;;;16.20;99.90;;;;;;5072990;28;20031;-70
2022/10/18 08:21:18;;;;;;;47.00;26.08;;;16.20;99.90;;;;;;5073328;28;20040;-69
2022/10/18 08:23:45;;;;;;;49.92;27.85;;;16.20;99.90;;;;;;5073931;28;20021;-70
2022/10/18 08:26:14;;;;;;;61.33;32.58;;;16.20;99.90;;;;;;5073680;28;20035;-70
2022/10/18 08:28:40;;;;;;;52.25;30.05;;;16.20;99.90;;;;;;5073276;28;20033;-69
2022/10/18 08:31:09;;;;;;;64.68;33.08;;;16.20;99.90;;;;;;5073418;28;20032;-69
2022/10/18 08:33:36;;;;;;;60.67;32.65;;;16.20;99.90;;;;;;5073212;28;20061;-69
2022/10/18 08:36:07;;;;;;;67.05;34.67;;;16.20;99.90;;;;;;5073083;28;20036;-69
2022/10/18 08:38:37;;;;;;;67.97;36.70;;;16.10;99.90;;;;;;5073200;28;20024;-70
2022/10/18 08:41:36;;;;;;;70.63;36.38;;;16.20;99.90;;;;;;5073095;28;20082;-70
2022/10/18 08:44:18;;;;;;;71.68;38.38;;;16.20;99.90;;;;;;5073158;28;20043;-70
2022/10/18 08:46:50;;;;;;;77.35;37.78;;;16.20;99.90;;;;;;5072995;28;20085;-70
2022/10/18 08:49:42;;;;;;;65.25;33.70;;;16.20;99.90;;;;;;5073040;28;20032;-70
2022/10/18 08:52:31;;;;;;;78.93;37.00;;;16.20;99.90;;;;;;5072963;28;20388;-70
2022/10/18 08:55:16;;;;;;;80.22;39.05;;;16.20;99.90;;;;;;5054977;28;20032;-70
2022/10/18 08:57:42;;;;;;;100.10;45.08;;;16.20;99.90;;;;;;5072745;28;20036;-70
2022/10/18 09:00:18;;;;;;;126.07;53.75;;;16.20;99.90;;;;;;5072668;28;20033;-70
2022/10/18 09:02:59;;;;;;;127.43;54.10;;;16.30;99.90;;;;;;5072769;28;20396;-70
2022/10/18 09:05:51;;;;;;;130.32;58.03;;;16.30;99.90;;;;;;5073224;28;20024;-69
2022/10/18 09:08:35;;;;;;;116.60;52.53;;;16.30;99.90;;;;;;5072512;28;20033;-70
2022/10/18 09:11:40;;;;;;;115.05;52.53;;;16.30;99.90;;;;;;5072511;28;20460;-70
2022/10/18 09:14:30;;;;;;;98.00;47.72;;;16.30;99.90;;;;;;5041736;28;20040;-71
2022/10/18 09:17:06;;;;;;;85.15;42.22;;;16.30;99.90;;;;;;5072275;28;20085;-70
2022/10/18 09:20:06;;;;;;;98.78;43.22;;;16.30;99.90;;;;;;5072331;28;20028;-71
2022/10/18 09:22:57;;;;;;;84.20;41.13;;;16.30;99.90;;;;;;5072372;28;20017;-70
2022/10/18 09:25:42;;;;;;;82.35;39.13;;;16.30;99.90;;;;;;5063981;28;20404;-71
2022/10/18 09:28:14;;;;;;;83.28;39.47;;;16.40;99.90;;;;;;5054916;28;20506;-70
2022/10/18 09:30:44;;;;;;;73.65;36.55;;;16.40;99.90;;;;;;5071469;28;20123;-70
2022/10/18 09:33:19;;;;;;;71.50;38.78;;;16.40;99.90;;;;;;5072058;28;20025;-70
2022/10/18 09:35:54;;;;;;;74.63;35.20;;;16.40;99.90;;;;;;5072227;28;20535;-70
2022/10/18 09:38:25;;;;;;;69.70;35.53;;;16.50;99.90;;;;;;5072126;28;20028;-70
2022/10/18 09:41:03;;;;;;;59.60;32.50;;;16.50;99.90;;;;;;5072284;28;20024;-70
2022/10/18 09:44:05;;;;;;;56.67;30.50;;;16.50;99.90;;;;;;5071966;28;20021;-70
2022/10/18 09:46:37;;;;;;;62.28;33.65;;;16.50;99.90;;;;;;5072303;28;20041;-70
2022/10/18 09:49:10;;;;;;;68.28;34.83;;;16.50;99.90;;;;;;5071746;28;20036;-70
2022/10/18 09:51:43;;;;;;;63.40;33.70;;;16.60;99.90;;;;;;5145599;27;20580;-70
2022/10/18 09:54:28;;;;;;;76.80;39.17;;;16.60;99.90;;;;;;5130219;28;20034;-68
2022/10/18 09:57:04;;;;;;;75.07;39.75;;;16.60;99.90;;;;;;5129416;28;20104;-68
2022/10/18 09:59:37;;;;;;;80.03;40.65;;;16.70;99.90;;;;;;5129312;28;20038;-71
2022/10/18 10:02:04;;;;;;;79.32;42.97;;;16.70;99.90;;;;;;5129310;28;20114;-69
2022/10/18 10:04:30;;;;;;;79.75;41.67;;;16.70;99.90;;;;;;5129541;28;20030;-68
2022/10/18 10:06:59;;;;;;;78.55;40.17;;;16.70;99.90;;;;;;5129237;28;20028;-68
2022/10/18 10:09:36;;;;;;;76.10;38.75;;;16.70;99.90;;;;;;5129175;28;20027;-69
2022/10/18 10:12:02;;;;;;;68.97;37.92;;;16.70;99.90;;;;;;5129439;28;20391;-68
2022/10/18 10:14:29;;;;;;;65.38;34.45;;;16.70;99.90;;;;;;5129263;28;20042;-68
2022/10/18 10:17:05;;;;;;;63.28;33.13;;;16.80;99.90;;;;;;5129008;28;20039;-68
2022/10/18 10:19:38;;;;;;;57.55;30.77;;;16.80;99.90;;;;;;5127858;28;20024;-71
2022/10/18 10:22:13;;;;;;;56.10;30.17;;;16.90;99.90;;;;;;5129010;28;20050;-69
2022/10/18 10:24:50;;;;;;;53.78;28.20;;;16.90;99.90;;;;;;5129257;28;20027;-70
2022/10/18 10:27:29;;;;;;;49.97;27.27;;;16.90;99.90;;;;;;5129026;28;20028;-70
2022/10/18 10:29:56;;;;;;;;;;;16.80;99.90;;;;;;5129225;28;20036;-71
2022/10/18 10:32:24;;;;;;;55.63;30.13;;;16.80;99.90;;;;;;5129057;28;19908;-71
2022/10/18 10:34:51;;;;;;;55.17;30.17;;;16.80;99.90;;;;;;5127709;28;20060;-70
2022/10/18 10:37:33;;;;;;;51.95;29.08;;;16.80;99.90;;;;;;5127742;28;20031;-70
2022/10/18 10:40:29;;;;;;;49.03;28.85;;;16.90;99.90;;;;;;5129085;28;20030;-68
2022/10/18 10:43:04;;;;;;;45.72;26.58;;;16.90;99.90;;;;;;5124278;27;20510;-70
2022/10/18 10:45:41;;;;;;;48.25;28.30;;;16.90;99.90;;;;;;5129225;28;20042;-67
2022/10/18 10:48:17;;;;;;;48.88;29.42;;;17.00;99.90;;;;;;5129154;28;20031;-70
2022/10/18 10:51:17;;;;;;;53.00;29.83;;;17.00;99.90;;;;;;5127424;28;20110;-70
2022/10/18 10:53:58;;;;;;;52.90;28.10;;;17.00;99.90;;;;;;5127878;28;20066;-70
2022/10/18 10:56:36;;;;;;;50.55;28.13;;;17.10;99.90;;;;;;5128810;28;20508;-70
2022/10/18 10:59:17;;;;;;;51.85;29.00;;;17.10;99.90;;;;;;5128715;28;20028;-70
2022/10/18 11:01:49;;;;;;;47.03;27.05;;;17.10;99.90;;;;;;5122519;28;20096;-70
2022/10/18 11:04:25;;;;;;;52.17;29.67;;;17.10;99.90;;;;;;5114860;28;20108;-70
2022/10/18 11:07:03;;;;;;;48.22;28.02;;;17.10;99.90;;;;;;5113533;28;20059;-70
2022/10/18 11:10:06;;;;;;;44.13;25.80;;;17.10;99.90;;;;;;5114565;28;20055;-70
2022/10/18 11:13:00;;;;;;;49.47;26.17;;;17.10;99.90;;;;;;5115081;28;20035;-70
2022/10/18 11:15:46;;;;;;;46.70;25.52;;;17.10;99.90;;;;;;5113506;28;20055;-70
2022/10/18 11:18:18;;;;;;;46.22;25.45;;;17.20;99.90;;;;;;5114455;28;20089;-70
2022/10/18 11:20:47;;;;;;;39.20;23.48;;;17.20;99.90;;;;;;5114165;28;20032;-70
2022/10/18 11:23:15;;;;;;;44.47;24.17;;;17.20;99.90;;;;;;5114382;28;20084;-70
2022/10/18 11:26:11;;;;;;;50.75;26.17;;;17.10;99.90;;;;;;5114098;28;20027;-70
2022/10/18 11:29:00;;;;;;;44.05;23.60;;;17.10;99.90;;;;;;5113962;28;20027;-70
2022/10/18 11:32:02;;;;;;;43.83;23.63;;;17.00;99.90;;;;;;5113735;28;20480;-70
2022/10/18 11:34:37;;;;;;;38.08;21.58;;;17.10;99.90;;;;;;5112804;28;20027;-70
2022/10/18 11:37:24;;;;;;;45.42;23.13;;;17.10;99.90;;;;;;5113749;28;20024;-70
2022/10/18 11:40:12;;;;;;;39.50;22.20;;;17.00;99.90;;;;;;5113757;28;20039;-70
2022/10/18 11:42:56;;;;;;;39.15;20.27;;;17.00;99.90;;;;;;5113765;28;20024;-70
2022/10/18 11:45:31;;;;;;;36.33;19.83;;;17.00;99.90;;;;;;5112417;28;20039;-70
2022/10/18 11:48:16;;;;;;;40.80;22.25;;;17.10;99.90;;;;;;5112438;28;20412;-70
2022/10/18 11:51:00;;;;;;;38.08;21.83;;;17.00;99.90;;;;;;5113432;28;20392;-70
2022/10/18 11:53:49;;;;;;;35.90;19.63;;;17.00;99.90;;;;;;5113612;28;20069;-70
2022/10/18 11:56:52;;;;;;;32.85;16.75;;;17.00;99.90;;;;;;5113615;28;20107;-70
2022/10/18 11:59:27;;;;;;;30.95;16.95;;;17.00;99.90;;;;;;5113415;28;20035;-70
2022/10/18 12:02:12;;;;;;;24.20;15.25;;;17.00;99.90;;;;;;5113823;28;20140;-70
2022/10/18 12:04:44;;;;;;;27.65;13.32;;;17.00;99.90;;;;;;5112249;28;20038;-70
2022/10/18 12:07:14;;;;;;;24.95;11.82;;;17.10;99.90;;;;;;5113283;28;20433;-70
2022/10/18 12:09:46;;;;;;;18.00;10.43;;;17.10;99.90;;;;;;5112064;28;20059;-70
2022/10/18 12:12:26;;;;;;;18.77;9.35;;;17.10;99.90;;;;;;5113354;28;20070;-70
2022/10/18 12:15:03;;;;;;;13.93;8.32;;;17.10;99.90;;;;;;5112369;28;20031;-70
2022/10/18 12:17:36;;;;;;;18.52;9.32;;;17.10;99.90;;;;;;5113358;28;20036;-70
2022/10/18 12:20:30;;;;;;;16.15;8.13;;;17.10;99.90;;;;;;5111681;28;20034;-69
2022/10/18 12:23:12;;;;;;;19.85;8.25;;;17.10;99.90;;;;;;5113186;28;20027;-70
2022/10/18 12:25:42;;;;;;;18.77;7.82;;;17.10;99.90;;;;;;5113333;28;20122;-70
2022/10/18 12:29:02;;;;;;;13.32;7.20;;;17.10;99.90;;;;;;5112774;28;20028;-70
2022/10/18 12:31:58;;;;;;;17.55;8.05;;;17.20;99.90;;;;;;5089740;28;20486;-70
2022/10/18 12:34:33;;;;;;;20.25;9.52;;;17.30;99.90;;;;;;5112245;28;20644;-70
2022/10/18 12:37:11;;;;;;;20.98;8.57;;;17.30;99.90;;;;;;5113036;28;20399;-70
2022/10/18 12:39:45;;;;;;;16.25;8.30;;;17.40;99.90;;;;;;5112571;28;20032;-70
2022/10/18 12:42:24;;;;;;;20.80;9.40;;;17.50;99.90;;;;;;5112615;28;20035;-70
2022/10/18 12:45:12;;;;;;;19.42;8.55;;;17.50;99.90;;;;;;5112775;28;20042;-70
2022/10/18 12:47:39;;;;;;;17.00;7.75;;;17.60;99.90;;;;;;5112514;28;20103;-70
2022/10/18 12:50:24;;;;;;;15.10;6.60;;;17.70;99.90;;;;;;5111929;28;20445;-70
2022/10/18 12:53:13;;;;;;;14.93;6.82;;;17.70;99.90;;;;;;5110973;28;20118;-70
2022/10/18 12:56:18;;;;;;;23.20;8.07;;;17.70;99.90;;;;;;5109110;28;20507;-70
2022/10/18 12:58:43;;;;;;;22.15;8.75;;;17.80;99.90;;;;;;5112134;28;20047;-70
2022/10/18 13:01:09;;;;;;;16.25;7.60;;;17.80;99.90;;;;;;5112038;28;20491;-70